Terminal Aerodrome Forecast
Issued by NWS Pocatello, ID

Home | Current Version | Previous Version | Text Only | Print | Product List | Glossary On
Versions: 1 2 3 4 5 6 7 8 9 10 11 12 13 14 15 16 17 18 19 20
000
FTUS45 KPIH 190500
TAFPIH
TAF
KPIH 190520Z 1906/2006 22010KT P6SM FEW180
     FM190900 VRB04KT P6SM SCT180
     FM191900 25012G22KT P6SM FEW050 BKN150
     FM200100 20008KT P6SM VCSH SCT060 BKN090=

USA.gov is the U.S. government's official web portal to all federal, state and local government web resources and services.